Data for 08/12/2007

Time Sea-Level Adjusted Pressure Absolute Pressure Temperature Relative Humidity Dew Point   
(mb) (inHg) (mb) (inHg) (C) (F) (%) (C) (F)
00:05 1018 30.06 847 25.01 17.5 63.4 37 2.8 37
00:10 1018 30.06 847 25.01 17.5 63.5 37 2.7 36.8
00:15 1018 30.06 847 25.01 17.4 63.3 37 2.8 37
00:20 1018 30.06 847 25.01 17.4 63.2 37 2.7 36.9
00:25 1018 30.06 847 25.01 17.3 63.1 37 2.7 36.8
00:30 1018 30.06 847 25.01 17.3 63.1 37 2.6 36.7
00:35 1018 30.06 847 25.01 17.3 63.1 37 2.5 36.4
00:40 1018 30.06 847 25.01 17.1 62.9 37 2.6 36.7
00:45 1018 30.06 847 25.01 17 62.6 37 2.5 36.5
00:50 1018 30.06 847 25.01 17 62.5 38 2.6 36.6
00:55 1018 30.06 847 25.01 16.9 62.4 38 2.5 36.5
01:00 1018 30.06 847 25.01 16.8 62.2 38 2.5 36.5
01:05 1018 30.06 847 25.01 16.8 62.2 38 2.4 36.3
01:10 1017 30.03 847 25.01 16.8 62.2 38 2.4 36.2
01:15 1018 30.06 847 25.01 16.7 62 38 2.3 36.1
01:20 1018 30.06 847 25.01 16.7 62.1 38 2.3 36.1
01:25 1018 30.06 847 25.01 16.6 61.9 38 2.4 36.3
01:30 1018 30.06 847 25.01 16.5 61.7 38 2.2 35.9
01:35 1018 30.06 847 25.01 16.6 61.8 38 2.1 35.8
01:40 1018 30.06 847 25.01 16.6 61.8 38 2.1 35.8
01:45 1018 30.06 847 25.01 16.5 61.7 38 2.1 35.8
01:50 1018 30.06 847 25.01 16.5 61.6 38 2.2 35.9
01:55 1018 30.06 847 25.01 16.5 61.8 38 2.1 35.8
02:00 1018 30.06 847 25.01 16.5 61.7 38 2.2 35.9
02:05 1018 30.06 847 25.01 16.4 61.5 38 2.2 35.9
02:10 1018 30.06 847 25.01 16.1 60.9 40 2.5 36.5
02:15 1018 30.06 847 25.01 15.9 60.7 39 2.3 36.1
02:20 1018 30.06 847 25.01 15.9 60.7 40 2.3 36.1
02:25 1018 30.06 847 25.01 15.9 60.7 39 2.2 36
02:30 1018 30.06 847 25.01 16 60.7 40 2.5 36.4
02:35 1018 30.06 847 25.01 15.8 60.4 40 2.3 36.1
02:40 1018 30.06 847 25.01 15.9 60.6 40 2.3 36.2
02:45 1018 30.06 847 25.01 15.9 60.5 40 2.3 36.2
02:50 1018 30.06 847 25.01 15.7 60.2 41 2.6 36.7
02:55 1018 30.06 847 25.01 15.5 59.9 42 2.7 36.8
03:00 1018 30.06 847 25.01 15.3 59.5 42 2.5 36.6
03:05 1018 30.06 847 25.01 15.3 59.5 42 2.6 36.7
03:10 1018 30.06 847 25.01 15.2 59.3 42 2.6 36.7
03:15 1018 30.06 847 25.01 15.2 59.3 42 2.6 36.7
03:20 1018 30.06 848 25.04 15.1 59.3 42 2.5 36.6
03:25 1018 30.06 848 25.04 15.1 59.1 43 2.6 36.6
03:30 1018 30.06 847 25.01 15 59 43 2.6 36.8
03:35 1018 30.06 848 25.04 14.8 58.6 44 2.7 36.8
03:40 1018 30.06 848 25.04 14.7 58.5 43 2.5 36.5
03:45 1018 30.06 848 25.04 14.9 58.8 42 2.3 36.2
03:50 1019 30.09 848 25.04 14.9 58.9 43 2.6 36.7
03:55 1019 30.09 848 25.04 14.8 58.6 44 2.6 36.6
04:00 1019 30.09 848 25.04 14.7 58.4 43 2.5 36.4
04:05 1019 30.09 848 25.04 14.8 58.6 43 2.4 36.3
04:10 1019 30.09 848 25.04 14.9 58.7 43 2.5 36.6
04:15 1019 30.09 848 25.04 14.6 58.4 44 2.6 36.7
04:20 1019 30.09 848 25.04 14.5 58 44 2.6 36.6
04:25 1019 30.09 848 25.04 14.4 57.9 45 2.6 36.6
04:30 1019 30.09 848 25.04 14.3 57.7 45 2.7 36.9
04:35 1019 30.09 848 25.04 14.1 57.3 45 2.5 36.6
04:40 1019 30.09 848 25.04 14.1 57.4 45 2.6 36.6
04:45 1019 30.09 848 25.04 14 57.3 46 2.7 36.9
04:50 1019 30.09 848 25.04 13.9 57 47 2.9 37.2
04:55 1019 30.09 848 25.04 13.7 56.6 48 2.9 37.2
05:00 1019 30.09 848 25.04 13.6 56.5 48 2.8 37.1
05:05 1019 30.09 848 25.04 13.7 56.6 47 2.6 36.7
05:10 1019 30.09 848 25.04 13.7 56.7 47 2.7 36.9
05:15 1019 30.09 848 25.04 13.7 56.6 47 2.6 36.7
05:20 1019 30.09 848 25.04 13.7 56.7 47 2.6 36.8
05:25 1019 30.09 848 25.04 13.7 56.6 47 2.7 36.9
05:30 1018 30.06 848 25.04 13.5 56.3 48 2.9 37.3
05:35 1019 30.09 848 25.04 13.3 55.9 50 3 37.4
05:40 1018 30.06 848 25.04 13.3 55.9 50 3 37.5
05:45 1019 30.09 848 25.04 13.1 55.6 50 3.1 37.6
05:50 1019 30.09 848 25.04 12.9 55.3 51 3.1 37.6
05:55 1018 30.06 848 25.04 12.9 55.2 50 2.8 37.1
06:00 1018 30.06 848 25.04 13 55.3 50 3 37.3
06:05 1019 30.09 848 25.04 12.9 55.3 51 3 37.4
06:10 1019 30.09 848 25.04 12.9 55.1 50 2.8 37
06:15 1019 30.09 848 25.04 13 55.3 51 3 37.4
06:20 1019 30.09 848 25.04 12.9 55.2 50 2.8 37
06:25 1019 30.09 848 25.04 12.9 55.2 49 2.6 36.7
06:30 1019 30.09 848 25.04 12.9 55.3 50 2.7 36.9
06:35 1019 30.09 848 25.04 13 55.5 49 2.8 37
06:40 1019 30.09 848 25.04 13.2 55.7 48 2.5 36.5
06:45 1019 30.09 848 25.04 13.2 55.7 48 2.6 36.6
06:50 1019 30.09 848 25.04 13.3 56 48 2.5 36.5
06:55 1019 30.09 848 25.04 13.4 56.1 48 2.7 36.8
07:00 1019 30.09 848 25.04 13.5 56.3 48 2.7 36.8
07:05 1019 30.09 848 25.04 13.5 56.4 47 2.6 36.7
07:10 1019 30.09 848 25.04 13.8 56.8 46 2.4 36.3
07:15 1019 30.09 848 25.04 14 57.1 46 2.5 36.6
07:20 1019 30.09 848 25.04 14.1 57.4 46 2.7 36.8
07:25 1019 30.09 848 25.04 14.2 57.5 46 2.8 37
07:30 1019 30.09 848 25.04 14.3 57.7 46 2.8 37
07:35 1019 30.09 848 25.04 14.6 58.2 45 2.9 37.3
07:40 1019 30.09 848 25.04 14.9 58.7 45 3 37.4
07:45 1019 30.09 848 25.04 15.2 59.4 44 3.2 37.8
07:50 1019 30.09 848 25.04 15.7 60.2 43 3.1 37.5
07:55 1019 30.09 849 25.07 15.9 60.6 43 3.4 38.2
08:00 1019 30.09 849 25.07 15.8 60.5 44 3.7 38.6
08:05 1019 30.09 849 25.07 16.1 60.9 43 3.6 38.6
08:10 1019 30.09 849 25.07 16.3 61.4 42 3.6 38.5
08:15 1019 30.09 849 25.07 16.7 62.1 40 3.2 37.8
08:20 1019 30.09 849 25.07 17.3 63.2 38 3.1 37.5
08:25 1019 30.09 849 25.07 17.3 63.1 39 3.4 38.1
08:30 1019 30.09 849 25.07 17.5 63.6 38 3.3 37.9
08:35 1019 30.09 849 25.07 17.8 64.1 38 3.6 38.4
08:40 1019 30.09 849 25.07 18.1 64.6 38 3.6 38.5
08:45 1019 30.09 849 25.07 18.4 65.1 36 3.1 37.6
08:50 1019 30.09 849 25.07 18.5 65.3 36 3.4 38.2
08:55 1019 30.09 849 25.07 18.8 65.8 36 3.6 38.6
09:00 1019 30.09 849 25.07 18.5 65.4 37 3.8 38.9
09:05 1019 30.09 849 25.07 18.7 65.7 36 3.3 38
09:10 1019 30.09 849 25.07 19.3 66.8 36 4 39.1
09:15 1019 30.09 849 25.07 19.6 67.4 34 3.6 38.5
09:20 1020 30.12 849 25.07 20 68 34 3.9 39.1
09:25 1020 30.12 849 25.07 20.7 69.3 33 3.9 39.1
09:30 1020 30.12 849 25.07 20.8 69.5 32 3.9 39
09:35 1019 30.09 849 25.07 21 69.9 33 4.2 39.5
09:40 1019 30.09 849 25.07 21.2 70.1 32 4.2 39.6
09:45 1020 30.12 849 25.07 21.2 70.1 32 4.1 39.4
09:50 1019 30.09 849 25.07 21.2 70.1 33 4.4 39.9
09:55 1019 30.09 849 25.07 21.3 70.3 32 3.9 39
10:00 1019 30.09 849 25.07 22 71.6 31 4.1 39.4
10:05 1019 30.09 849 25.07 22.6 72.7 31 4.9 40.7
10:10 1019 30.09 849 25.07 22.3 72.1 33 5.4 41.8
10:15 1019 30.09 849 25.07 21.8 71.2 32 4.7 40.5
10:20 1019 30.09 849 25.07 22 71.6 33 5.3 41.5
10:25 1019 30.09 849 25.07 22.8 73 31 5.1 41.3
10:30 1019 30.09 849 25.07 22.8 73 32 5.2 41.4
10:35 1019 30.09 849 25.07 23.7 74.6 30 5.5 42
10:40 1019 30.09 849 25.07 23.6 74.6 30 5.5 41.9
10:45 1019 30.09 849 25.07 23.9 75 31 6 42.7
10:50 1019 30.09 849 25.07 23.5 74.2 31 5.6 42
10:55 1019 30.09 849 25.07 23.9 75.1 30 5.5 41.9
11:00 1019 30.09 849 25.07 24.2 75.5 27 4.3 39.8
11:05 1019 30.09 849 25.07 24.8 76.7 26 4.4 39.9
11:10 1019 30.09 849 25.07 25.5 77.9 25 4.5 40.1
11:15 1019 30.09 848 25.04 25.2 77.4 26 4.8 40.6
11:20 1019 30.09 848 25.04 26.1 78.9 25 4.9 40.8
11:25 1019 30.09 848 25.04 25.8 78.5 26 5.3 41.6
11:30 1019 30.09 848 25.04 25.5 77.9 27 5.6 42.1
11:35 1019 30.09 848 25.04 26.1 79 27 5.9 42.6
11:40 1019 30.09 848 25.04 26.3 79.4 25 5.2 41.4
11:45 1019 30.09 848 25.04 26.2 79.2 26 5.5 42
11:50 1019 30.09 848 25.04 26.1 79 27 6 42.8
11:55 1019 30.09 848 25.04 26.5 79.7 26 5.7 42.3
12:00 1019 30.09 848 25.04 27.1 80.7 26 6.5 43.6
12:05 1019 30.09 848 25.04 27.2 80.9 25 5.5 41.9
12:10 1019 30.09 848 25.04 27.8 82 25 6.2 43.2
12:15 1019 30.09 848 25.04 28.6 83.4 24 6.1 43
12:20 1019 30.09 848 25.04 28.6 83.5 23 5.8 42.5
12:25 1019 30.09 848 25.04 28.2 82.8 25 6.5 43.8
12:30 1019 30.09 848 25.04 28.5 83.3 23 6 42.8
12:35 1019 30.09 848 25.04 28.4 83.2 23 5.4 41.8
12:40 1018 30.06 848 25.04 28.9 84.1 20 4.4 39.9
12:45 1018 30.06 848 25.04 28.5 83.2 20 3.5 38.3
12:50 1018 30.06 848 25.04 29 84.2 19 3.1 37.6
12:55 1018 30.06 848 25.04 29.9 85.9 18 3.5 38.4
13:00 1018 30.06 848 25.04 30.6 87 16 2.2 36
13:05 1018 30.06 848 25.04 31.3 88.3 14 1.1 33.9
13:10 1018 30.06 848 25.04 31.9 89.4 12 -0.5 31.2
13:15 1018 30.06 848 25.04 31 87.7 13 -0.6 31
13:20 1018 30.06 847 25.01 30.9 87.7 13 -0.3 31.5
13:25 1018 30.06 847 25.01 31 87.9 13 -0.1 31.9
13:30 1018 30.06 847 25.01 31.1 87.9 12 -1.1 30.1
13:35 1018 30.06 847 25.01 31 87.8 13 0 32
13:40 1018 30.06 847 25.01 31.5 88.7 12 -1.2 29.8
13:45 1018 30.06 847 25.01 31.8 89.2 11 -1.4 29.5
13:50 1018 30.06 847 25.01 31.8 89.2 11 -2.1 28.2
13:55 1018 30.06 847 25.01 32 89.7 12 -1 30.2
14:00 1018 30.06 847 25.01 32 89.6 12 -0.8 30.6
14:05 1018 30.06 847 25.01 32 89.5 11 -1.6 29.1
14:10 1018 30.06 847 25.01 32.8 91.1 11 -0.8 30.6
14:15 1018 30.06 847 25.01 33.4 92.1 11 -1.3 29.7
14:20 1018 30.06 847 25.01 33.9 93 11 -0.7 30.8
14:25 1017 30.03 847 25.01 34.7 94.5 10 -1.6 29.2
14:30 1018 30.06 847 25.01 34.2 93.5 10 -0.8 30.6
14:35 1017 30.03 847 25.01 33.1 91.6 10 -2.1 28.3
14:40 1017 30.03 847 25.01 33.2 91.7 8 -4.9 23.2
14:45 1017 30.03 847 25.01 32.7 90.9 9 -4.1 24.7
14:50 1017 30.03 846 24.98 32.8 91 9 -4.2 24.4
14:55 1017 30.03 846 24.98 32.7 90.9 8 -4.9 23.2
15:00 1017 30.03 846 24.98 32.8 91 8 -4.8 23.4
15:05 1017 30.03 846 24.98 32.8 91 9 -3.5 25.8
15:10 1017 30.03 846 24.98 33.1 91.6 9 -4.2 24.5
15:15 1017 30.03 846 24.98 33.1 91.7 8 -4.6 23.7
15:20 1017 30.03 846 24.98 33.3 92 8 -4.4 24.1
15:25 1017 30.03 846 24.98 33 91.5 8 -4.5 23.9
15:30 1017 30.03 846 24.98 33.3 91.9 9 -4 24.9
15:35 1017 30.03 846 24.98 33.3 92 9 -3.4 25.9
15:40 1017 30.03 846 24.98 33.3 91.9 8 -4.5 23.9
15:45 1017 30.03 846 24.98 33.1 91.5 9 -3.1 26.4
15:50 1017 30.03 846 24.98 33.1 91.5 9 -4.1 24.7
15:55 1017 30.03 846 24.98 33 91.3 9 -3.8 25.1
16:00 1017 30.03 846 24.98 33.1 91.5 9 -3.5 25.6
16:05 1017 30.03 846 24.98 33 91.4 9 -3.2 26.2
16:10 1017 30.03 846 24.98 33.1 91.7 9 -3.4 25.9
16:15 1017 30.03 846 24.98 33 91.4 10 -2.2 28
16:20 1017 30.03 846 24.98 33 91.4 8 -4.5 23.9
16:25 1017 30.03 846 24.98 32.7 90.9 9 -3.7 25.3
16:30 1017 30.03 846 24.98 33.1 91.5 9 -3.7 25.4
16:35 1017 30.03 846 24.98 32.9 91.3 9 -4.5 24
16:40 1017 30.03 846 24.98 33.1 91.5 9 -3.3 26
16:45 1017 30.03 846 24.98 33.1 91.7 10 -2.8 27
16:50 1017 30.03 846 24.98 33.1 91.5 9 -2.9 26.7
16:55 1017 30.03 846 24.98 32.9 91.2 9 -3.8 25.2
17:00 1017 30.03 846 24.98 32.9 91.2 9 -3.2 26.2
17:05 1017 30.03 846 24.98 33.1 91.6 9 -3 26.5
17:10 1017 30.03 846 24.98 32.9 91.2 9 -4 24.7
17:15 1017 30.03 846 24.98 32.9 91.2 9 -4.2 24.4
17:20 1017 30.03 846 24.98 33.2 91.7 9 -3.4 25.9
17:25 1017 30.03 846 24.98 33.1 91.5 9 -4 24.8
17:30 1017 30.03 846 24.98 32.7 90.9 9 -3.4 25.9
17:35 1017 30.03 846 24.98 32.4 90.4 10 -3.3 26.1
17:40 1017 30.03 846 24.98 32.6 90.7 9 -3.7 25.4
17:45 1017 30.03 846 24.98 32.5 90.5 9 -3.9 25.1
17:50 1017 30.03 846 24.98 32.8 91 9 -3.5 25.8
17:55 1017 30.03 846 24.98 32.8 91.1 9 -4 24.9
18:00 1017 30.03 846 24.98 32.8 91.1 10 -3 26.6
18:05 1017 30.03 846 24.98 32.7 90.8 9 -3.6 25.6
18:10 1017 30.03 846 24.98 32.7 90.8 9 -4.1 24.7
18:15 1016 30 846 24.98 32.7 90.8 10 -3.2 26.2
18:20 1017 30.03 846 24.98 32.2 90 11 -2 28.5
18:25 1017 30.03 846 24.98 32.1 89.7 10 -3.3 26.1
18:30 1017 30.03 846 24.98 32.1 89.8 9 -3.9 24.9
18:35 1016 30 846 24.98 32 89.7 9 -3.8 25.2
18:40 1016 30 846 24.98 32 89.5 9 -4.2 24.5
18:45 1016 30 846 24.98 31.9 89.5 9 -3.9 25
18:50 1016 30 846 24.98 31.8 89.3 9 -4.6 23.7
18:55 1016 30 846 24.98 31.7 89 10 -3.3 26
19:00 1016 30 846 24.98 31.5 88.8 9 -4.1 24.6
19:05 1016 30 846 24.98 31.4 88.4 10 -3.7 25.4
19:10 1016 30 846 24.98 31.1 87.9 11 -2.4 27.7
19:15 1017 30.03 846 24.98 30.7 87.3 10 -3.4 25.8
19:20 1016 30 846 24.98 30.7 87.2 10 -4.5 23.9
19:25 1016 30 846 24.98 30.6 87.1 10 -4.5 23.8
19:30 1016 30 846 24.98 30.3 86.5 11 -3.2 26.2
19:35 1016 30 846 24.98 30.1 86.1 10 -5.2 22.6
19:40 1016 30 846 24.98 30.6 87.2 10 -4.6 23.7
19:45 1016 30 846 24.98 30.3 86.6 9 -5.3 22.5
19:50 1017 30.03 846 24.98 30.1 86.2 10 -4.7 23.5
19:55 1017 30.03 846 24.98 30 85.9 10 -4.7 23.5
20:00 1017 30.03 846 24.98 29.7 85.4 11 -3.8 25.2
20:05 1017 30.03 846 24.98 29.2 84.5 11 -3.7 25.4
20:10 1017 30.03 846 24.98 28.9 83.9 11 -4.4 24.1
20:15 1017 30.03 846 24.98 28.5 83.4 12 -3.8 25.1
20:20 1017 30.03 846 24.98 28.2 82.7 11 -4.3 24.3
20:25 1017 30.03 846 24.98 28 82.5 10 -6.1 21
20:30 1017 30.03 846 24.98 29.2 84.5 9 -6.4 20.5
20:35 1017 30.03 846 24.98 29.2 84.6 10 -5.9 21.5
20:40 1017 30.03 846 24.98 29.1 84.4 9 -6.1 21.1
20:45 1017 30.03 846 24.98 28.7 83.7 10 -5.9 21.4
20:50 1017 30.03 846 24.98 28.6 83.5 10 -5.9 21.4
20:55 1017 30.03 846 24.98 28.5 83.2 10 -6.1 21
21:00 1017 30.03 846 24.98 28.5 83.3 10 -5.7 21.7
21:05 1017 30.03 846 24.98 28.1 82.6 10 -6 21.1
21:10 1017 30.03 846 24.98 28.1 82.5 10 -5.6 22
21:15 1017 30.03 846 24.98 27.9 82.2 11 -5.6 22
21:20 1017 30.03 847 25.01 27.7 81.9 11 -5.2 22.6
21:25 1017 30.03 847 25.01 27.9 82.3 10 -5.6 21.9
21:30 1017 30.03 847 25.01 28.2 82.7 11 -5.1 22.8
21:35 1017 30.03 847 25.01 27.7 81.9 11 -5.6 21.8
21:40 1017 30.03 847 25.01 28 82.3 11 -5.3 22.4
21:45 1017 30.03 847 25.01 27.9 82.2 11 -5.4 22.4
21:50 1017 30.03 847 25.01 27.6 81.7 11 -4.9 23.3
21:55 1017 30.03 847 25.01 27.2 80.9 11 -5.4 22.3
22:00 1017 30.03 847 25.01 27.7 81.8 11 -5.5 22.1
22:05 1018 30.06 847 25.01 28 82.5 11 -5.1 22.9
22:10 1018 30.06 847 25.01 27.9 82.1 11 -5.5 22.1
22:15 1018 30.06 847 25.01 28.2 82.7 10 -5.9 21.4
22:20 1018 30.06 847 25.01 28 82.4 11 -5.3 22.5
22:25 1018 30.06 847 25.01 27.8 82 11 -5.4 22.3
22:30 1018 30.06 847 25.01 27.4 81.4 11 -5.4 22.4
22:35 1018 30.06 847 25.01 27.2 80.9 11 -5.4 22.2
22:40 1018 30.06 847 25.01 27.1 80.8 11 -5.4 22.3
22:45 1018 30.06 847 25.01 26.9 80.4 11 -5.6 22
22:50 1018 30.06 847 25.01 26.8 80.2 11 -5.6 22
22:55 1018 30.06 847 25.01 27 80.5 11 -5.8 21.5
23:00 1018 30.06 848 25.04 27.1 80.7 12 -5 22.9
23:05 1019 30.09 848 25.04 25.9 78.7 13 -4 24.8
23:10 1019 30.09 848 25.04 25 77 14 -4.3 24.3
23:15 1019 30.09 848 25.04 25.2 77.3 14 -3.9 25
23:20 1019 30.09 848 25.04 24.9 76.9 15 -3.6 25.5
23:25 1019 30.09 848 25.04 24.6 76.3 15 -3.3 26.1
23:30 1019 30.09 849 25.07 24.2 75.5 16 -3.1 26.4
23:35 1019 30.09 849 25.07 23.7 74.7 17 -2.9 26.8
23:40 1019 30.09 849 25.07 23.4 74 17 -2.5 27.5
23:45 1019 30.09 849 25.07 23.1 73.6 18 -2.2 28
23:50 1019 30.09 849 25.07 22.9 73.3 18 -2.2 28.1
23:55 1020 30.12 849 25.07 22.8 73.1 19 -1.7 28.9
24:00 1020 30.12 849 25.07 22.6 72.7 20 -1.6 29.2